createdAt,value
2023-04-12T06:29:49.165Z,17.32
2023-04-12T06:30:04.187Z,17.32
2023-04-12T06:30:10.330Z,17.29
2023-04-12T06:30:20.473Z,17.29
2023-04-12T06:30:30.477Z,17.26
2023-04-12T06:30:40.678Z,17.25
2023-04-12T06:30:50.784Z,17.29
2023-04-12T06:31:10.969Z,17.18
2023-04-12T06:31:21.123Z,17.10
2023-04-12T06:31:31.186Z,16.93
2023-04-12T06:31:41.459Z,16.86
2023-04-12T06:31:51.416Z,16.81
2023-04-12T06:32:01.536Z,16.70
2023-04-12T06:32:11.621Z,16.58
2023-04-12T06:32:21.821Z,16.52
2023-04-12T06:32:31.924Z,16.48
2023-04-12T06:32:42.189Z,16.38
2023-04-12T06:32:52.145Z,16.33
2023-04-12T06:33:02.275Z,16.27
2023-04-12T06:33:12.411Z,16.30
2023-04-12T06:33:23.477Z,16.22
2023-04-12T06:33:32.586Z,16.18
2023-04-12T06:33:42.801Z,16.16
2023-04-12T06:33:52.928Z,16.14
2023-04-12T06:34:03.135Z,16.09
2023-04-12T06:34:13.186Z,16.03
2023-04-12T06:34:34.729Z,15.99
2023-04-12T06:34:43.531Z,15.94
2023-04-12T06:34:53.591Z,15.92
2023-04-12T06:35:03.712Z,15.89
2023-04-12T06:35:13.814Z,15.93
2023-04-12T06:35:24.012Z,15.92
2023-04-12T06:35:34.058Z,15.93
2023-04-12T06:35:44.245Z,15.96
2023-04-12T06:35:54.280Z,15.97
2023-04-12T06:36:04.458Z,15.94
2023-04-12T06:36:14.547Z,15.96
2023-04-12T06:36:24.766Z,15.94
2023-04-12T06:36:34.909Z,15.96
2023-04-12T06:36:45.078Z,15.97
2023-04-12T06:36:55.143Z,15.97
2023-04-12T06:37:05.375Z,15.96
2023-04-12T06:37:15.419Z,15.94
2023-04-12T06:37:25.611Z,15.94
2023-04-12T06:37:35.630Z,15.94
2023-04-12T06:37:45.893Z,15.94
2023-04-12T06:37:55.981Z,15.89
2023-04-12T06:38:06.063Z,15.93
2023-04-12T06:38:16.100Z,15.93
2023-04-12T06:38:26.354Z,15.96
2023-04-12T06:38:36.334Z,15.94
2023-04-12T06:38:46.717Z,15.94
2023-04-12T06:38:57.829Z,15.86
2023-04-12T06:39:07.391Z,15.82
2023-04-12T06:39:16.950Z,15.85
2023-04-12T06:39:33.046Z,15.85
2023-04-12T06:39:39.980Z,15.82
2023-04-12T06:39:49.044Z,15.84
2023-04-12T06:39:59.173Z,15.81
2023-04-12T06:40:09.227Z,15.82
2023-04-12T06:40:19.570Z,15.81
2023-04-12T06:40:39.786Z,15.75
2023-04-12T06:40:50.540Z,15.67
2023-04-12T06:40:59.944Z,15.64
2023-04-12T06:41:10.963Z,15.64
2023-04-12T06:41:31.073Z,15.61
2023-04-12T06:41:37.093Z,15.63
2023-04-12T06:41:48.155Z,15.63
2023-04-12T06:41:57.279Z,15.64
2023-04-12T06:42:07.354Z,15.61
2023-04-12T06:42:17.538Z,15.59
2023-04-12T06:42:37.845Z,15.56
2023-04-12T06:42:48.074Z,15.52
2023-04-12T06:42:58.031Z,15.52
2023-04-12T06:43:08.257Z,15.48
2023-04-12T06:43:18.898Z,15.43
2023-04-12T06:43:28.665Z,15.48
2023-04-12T06:43:38.754Z,15.51
2023-04-12T06:43:48.614Z,15.52
2023-04-12T06:43:58.895Z,15.51
2023-04-12T06:44:08.902Z,15.52
2023-04-12T06:44:19.185Z,15.51
2023-04-12T06:44:29.196Z,15.46
2023-04-12T06:44:39.370Z,15.46
2023-04-12T06:44:49.466Z,15.49
2023-04-12T06:44:59.652Z,15.48
2023-04-12T06:45:09.637Z,15.52
2023-04-12T06:45:19.989Z,15.59
2023-04-12T06:45:29.994Z,15.63
2023-04-12T06:45:40.095Z,15.68
2023-04-12T06:45:50.110Z,15.75
2023-04-12T06:46:00.217Z,15.81
2023-04-12T06:46:10.384Z,15.85
2023-04-12T06:46:20.531Z,15.93
2023-04-12T06:46:30.774Z,15.94
2023-04-12T06:46:40.757Z,15.99
2023-04-12T06:46:50.844Z,16.06
2023-04-12T06:47:00.868Z,16.06
2023-04-12T06:47:10.945Z,16.09
2023-04-12T06:47:21.073Z,16.23
2023-04-12T06:47:31.238Z,16.30
2023-04-12T06:47:41.524Z,16.26
2023-04-12T06:47:51.506Z,16.31
2023-04-12T06:48:01.577Z,16.34
2023-04-12T06:48:11.666Z,16.37
2023-04-12T06:48:21.852Z,16.34
2023-04-12T06:48:31.945Z,16.33
2023-04-12T06:48:42.108Z,16.34
2023-04-12T06:48:52.250Z,16.30
2023-04-12T06:49:02.292Z,16.30
2023-04-12T06:49:12.403Z,16.27
2023-04-12T06:49:22.595Z,16.27
2023-04-12T06:49:32.601Z,16.22
2023-04-12T06:49:42.830Z,16.20
2023-04-12T06:49:54.118Z,16.18
2023-04-12T06:50:03.054Z,16.16
2023-04-12T06:50:13.194Z,16.15
2023-04-12T06:50:23.220Z,16.12
2023-04-12T06:50:33.311Z,16.12
2023-04-12T06:50:43.489Z,16.11
2023-04-12T06:50:53.624Z,16.07
2023-04-12T06:51:03.782Z,16.04
2023-04-12T06:51:13.834Z,16.07
2023-04-12T06:51:24.056Z,16.07
2023-04-12T06:51:34.105Z,16.11
2023-04-12T06:51:44.314Z,16.04
2023-04-12T06:51:54.402Z,16.07
2023-04-12T06:52:04.615Z,16.14
2023-04-12T06:52:14.711Z,16.18
2023-04-12T06:52:25.033Z,16.23
2023-04-12T06:52:34.992Z,16.26
2023-04-12T06:52:45.073Z,16.26
2023-04-12T06:52:55.155Z,16.31
2023-04-12T06:53:05.320Z,16.27
2023-04-12T06:53:15.477Z,16.26
2023-04-12T06:53:25.560Z,16.22
2023-04-12T06:53:35.706Z,16.25
2023-04-12T06:53:45.980Z,16.22
2023-04-12T06:53:56.092Z,16.16
2023-04-12T06:54:06.113Z,16.15
2023-04-12T06:54:16.173Z,16.14
2023-04-12T06:54:26.382Z,16.09
2023-04-12T06:54:36.950Z,16.11
2023-04-12T06:54:46.586Z,16.11
2023-04-12T06:54:56.796Z,16.12
2023-04-12T06:55:06.857Z,16.14
2023-04-12T06:55:17.034Z,16.14
2023-04-12T06:55:27.025Z,16.15
2023-04-12T06:55:37.106Z,16.11
2023-04-12T06:55:47.348Z,16.11
2023-04-12T06:55:58.431Z,16.04
2023-04-12T06:56:07.581Z,16.03
2023-04-12T06:56:18.928Z,16.01
2023-04-12T06:56:27.838Z,16.01
2023-04-12T06:56:37.956Z,16.01
2023-04-12T06:56:48.119Z,16.00
2023-04-12T06:57:08.315Z,15.94
2023-04-12T06:57:18.476Z,15.97
2023-04-12T06:57:28.587Z,16.03
2023-04-12T06:57:38.702Z,15.99
2023-04-12T06:57:48.793Z,15.97
2023-04-12T06:57:58.946Z,15.99
2023-04-12T06:58:09.046Z,15.97
2023-04-12T06:58:19.163Z,15.97
2023-04-12T06:58:29.407Z,16.00
2023-04-12T06:58:39.353Z,16.01
2023-04-12T06:58:49.813Z,16.06
2023-04-12T06:58:59.983Z,16.06
2023-04-12T06:59:09.802Z,16.11
2023-04-12T06:59:19.853Z,16.12
2023-04-12T06:59:30.015Z,16.14
2023-04-12T06:59:40.233Z,16.15
2023-04-12T06:59:50.232Z,16.18
2023-04-12T07:00:00.392Z,16.16
2023-04-12T07:00:10.598Z,16.23
2023-04-12T07:00:20.694Z,16.23
2023-04-12T07:00:30.689Z,16.27
2023-04-12T07:00:40.859Z,16.25
2023-04-12T07:00:50.991Z,16.30
2023-04-12T07:01:01.067Z,16.40
2023-04-12T07:01:11.183Z,16.53
2023-04-12T07:01:21.416Z,16.60
2023-04-12T07:01:31.482Z,16.73
2023-04-12T07:01:42.295Z,16.78
2023-04-12T07:01:51.704Z,16.78
2023-04-12T07:02:01.943Z,16.83
2023-04-12T07:02:11.989Z,16.89
2023-04-12T07:02:22.115Z,17.00
2023-04-12T07:02:32.405Z,17.07
2023-04-12T07:02:42.443Z,17.13
2023-04-12T07:02:52.578Z,17.17
2023-04-12T07:03:02.568Z,17.22
2023-04-12T07:03:12.685Z,17.20
2023-04-12T07:03:24.523Z,17.26
2023-04-12T07:03:32.917Z,17.28
2023-04-12T07:03:43.007Z,17.25
2023-04-12T07:03:53.113Z,17.28
2023-04-12T07:04:03.362Z,17.35
2023-04-12T07:04:13.563Z,17.41
2023-04-12T07:04:33.701Z,17.38
2023-04-12T07:04:43.792Z,17.40
2023-04-12T07:04:53.921Z,17.41
2023-04-12T07:05:04.164Z,17.44
2023-04-12T07:05:14.182Z,17.44
2023-04-12T07:05:24.267Z,17.47
2023-04-12T07:05:34.340Z,17.47
2023-04-12T07:05:44.511Z,17.47
2023-04-12T07:05:54.609Z,17.50
2023-04-12T07:06:14.048Z,17.53
2023-04-12T07:06:29.994Z,17.50
2023-04-12T07:06:36.134Z,17.48
2023-04-12T07:06:45.905Z,17.54
2023-04-12T07:06:56.106Z,17.53
2023-04-12T07:07:06.358Z,17.54
2023-04-12T07:07:16.271Z,17.62
2023-04-12T07:07:36.534Z,17.63
2023-04-12T07:07:46.624Z,17.67
2023-04-12T07:07:56.777Z,17.70
2023-04-12T07:08:06.875Z,17.73
2023-04-12T07:08:17.004Z,17.78
2023-04-12T07:08:28.880Z,17.85
2023-04-12T07:08:37.202Z,17.95
2023-04-12T07:08:47.365Z,18.03
2023-04-12T07:08:57.616Z,18.17
2023-04-12T07:09:08.456Z,18.25
2023-04-12T07:09:17.764Z,18.31
2023-04-12T07:09:27.665Z,18.43
2023-04-12T07:09:37.895Z,18.52
2023-04-12T07:09:48.009Z,18.59
2023-04-12T07:09:58.171Z,18.68
2023-04-12T07:10:18.479Z,18.83
2023-04-12T07:10:28.583Z,18.90
2023-04-12T07:10:38.692Z,18.94
2023-04-12T07:10:48.805Z,19.05
2023-04-12T07:11:03.850Z,19.11
2023-04-12T07:11:20.795Z,19.15
2023-04-12T07:11:27.266Z,19.24
2023-04-12T07:11:34.835Z,19.36
2023-04-12T07:11:44.963Z,19.42
2023-04-12T07:11:55.034Z,19.51
2023-04-12T07:12:05.199Z,19.54
2023-04-12T07:12:15.477Z,19.63
2023-04-12T07:12:35.616Z,19.83
2023-04-12T07:12:45.779Z,19.87
2023-04-12T07:12:55.971Z,19.95
2023-04-12T07:13:06.077Z,20.06
2023-04-12T07:13:16.184Z,20.10
2023-04-12T07:13:26.445Z,20.18
2023-04-12T07:13:36.406Z,20.25
2023-04-12T07:13:46.604Z,20.35
2023-04-12T07:13:56.685Z,20.42
2023-04-12T07:14:06.790Z,20.49
2023-04-12T07:14:16.977Z,20.51
2023-04-12T07:14:27.060Z,20.56
2023-04-12T07:14:37.074Z,20.62
2023-04-12T07:14:47.277Z,20.69
2023-04-12T07:14:57.404Z,20.81
2023-04-12T07:15:07.656Z,20.95
2023-04-12T07:15:17.670Z,21.01
2023-04-12T07:15:27.767Z,21.01
2023-04-12T07:15:38.119Z,21.01
2023-04-12T07:15:48.038Z,21.05
2023-04-12T07:15:58.099Z,21.16
2023-04-12T07:16:08.205Z,21.20
2023-04-12T07:16:18.352Z,21.27
2023-04-12T07:16:28.440Z,21.38
2023-04-12T07:16:38.599Z,21.45
2023-04-12T07:16:48.858Z,21.54
2023-04-12T07:16:58.884Z,21.60
2023-04-12T07:17:08.978Z,21.60
2023-04-12T07:17:19.054Z,21.61
2023-04-12T07:17:29.165Z,21.59
2023-04-12T07:17:39.235Z,21.57
2023-04-12T07:17:49.644Z,21.57
2023-04-12T07:17:59.648Z,21.50
2023-04-12T07:18:09.886Z,21.44
2023-04-12T07:18:19.853Z,21.34
2023-04-12T07:18:30.007Z,21.24
2023-04-12T07:18:40.047Z,21.06
2023-04-12T07:18:50.281Z,20.98
2023-04-12T07:19:00.467Z,20.87
2023-04-12T07:19:10.478Z,20.81
2023-04-12T07:19:20.612Z,20.80
2023-04-12T07:19:31.748Z,20.72
2023-04-12T07:19:40.782Z,20.66
2023-04-12T07:19:51.006Z,20.64
2023-04-12T07:20:01.085Z,20.54
2023-04-12T07:20:11.197Z,20.53
2023-04-12T07:20:21.353Z,20.43
2023-04-12T07:20:31.568Z,20.35
2023-04-12T07:20:41.547Z,20.28
2023-04-12T07:20:51.719Z,20.21
2023-04-12T07:21:01.677Z,20.10
2023-04-12T07:21:11.874Z,19.91
2023-04-12T07:21:22.019Z,19.79
2023-04-12T07:21:32.231Z,19.70
2023-04-12T07:21:42.206Z,19.58
2023-04-12T07:21:52.414Z,19.47
2023-04-12T07:22:02.461Z,19.39
2023-04-12T07:22:14.045Z,19.23
2023-04-12T07:22:22.768Z,19.08
2023-04-12T07:22:33.033Z,18.97
2023-04-12T07:22:43.058Z,18.87
2023-04-12T07:22:53.245Z,18.76
2023-04-12T07:23:03.241Z,18.73
2023-04-12T07:23:13.371Z,18.70
2023-04-12T07:23:23.598Z,18.70
2023-04-12T07:23:33.602Z,18.70
2023-04-12T07:23:43.752Z,18.68
2023-04-12T07:23:53.964Z,18.68
2023-04-12T07:24:03.904Z,18.67
2023-04-12T07:24:14.207Z,18.70
2023-04-12T07:24:24.144Z,18.67
2023-04-12T07:24:34.368Z,18.68
2023-04-12T07:24:44.457Z,18.72
2023-04-12T07:24:54.598Z,18.72
2023-04-12T07:25:04.644Z,18.68
2023-04-12T07:25:14.819Z,18.65
2023-04-12T07:25:24.918Z,18.67
2023-04-12T07:25:35.144Z,18.64
2023-04-12T07:25:45.259Z,18.68
2023-04-12T07:25:55.370Z,18.72
2023-04-12T07:26:05.447Z,18.74
2023-04-12T07:26:15.523Z,18.83
2023-04-12T07:26:25.663Z,18.83
2023-04-12T07:26:35.802Z,18.82
2023-04-12T07:26:46.073Z,18.86
2023-04-12T07:26:56.225Z,18.82
2023-04-12T07:27:06.261Z,18.83
2023-04-12T07:27:16.522Z,18.80
2023-04-12T07:27:26.416Z,18.80
2023-04-12T07:27:36.524Z,18.82
2023-04-12T07:27:46.563Z,18.76
2023-04-12T07:27:56.705Z,18.74
2023-04-12T07:28:08.958Z,18.67
2023-04-12T07:28:17.064Z,18.67
2023-04-12T07:28:27.128Z,18.62
2023-04-12T07:28:37.314Z,18.58
2023-04-12T07:28:47.468Z,18.55
2023-04-12T07:28:57.617Z,18.49
2023-04-12T07:29:07.654Z,18.42
2023-04-12T07:29:17.786Z,18.42
2023-04-12T07:29:27.939Z,18.40
2023-04-12T07:29:38.188Z,18.36
2023-04-12T07:29:48.263Z,18.33
2023-04-12T07:29:58.463Z,18.33
2023-04-12T07:30:08.452Z,18.34
2023-04-12T07:30:18.593Z,18.34
2023-04-12T07:30:28.709Z,18.31
2023-04-12T07:30:38.826Z,18.31
2023-04-12T07:30:48.920Z,18.34
2023-04-12T07:30:59.207Z,18.29
2023-04-12T07:31:09.224Z,18.33
2023-04-12T07:31:19.230Z,18.33
2023-04-12T07:31:29.407Z,18.29
2023-04-12T07:31:39.522Z,18.33
2023-04-12T07:31:49.631Z,18.28
2023-04-12T07:31:59.744Z,18.33
2023-04-12T07:32:09.891Z,18.33
2023-04-12T07:32:20.107Z,18.31
2023-04-12T07:32:30.165Z,18.29
2023-04-12T07:32:40.330Z,18.29
2023-04-12T07:32:50.487Z,18.27
2023-04-12T07:33:08.579Z,18.29
